Time;durP1;ratioP1;P1;durP2;ratioP2;P2;SDS_P1;SDS_P2;PMS_P1;PMS_P2;Temp;Humidity;BMP_temperature;BMP_pressure;BME280_temperature;BME280_humidity;BME280_pressure;Samples;Min_cycle;Max_cycle;Signal;HPM_P1;HPM_P2
2023/12/10 00:00:58;;;;;;;46.50;4.63;;;;;;;-146.25;100.00;52684.50;2079881;28;20054;-74
2023/12/10 00:02:00;;;;;;;47.45;4.88;;;;;;;-146.25;100.00;52662.22;2079698;28;22387;-75
2023/12/10 00:03:02;;;;;;;51.78;4.75;;;;;;;-146.25;100.00;52637.88;2079403;28;23144;-74
2023/12/10 00:04:04;;;;;;;43.70;4.22;;;;;;;-146.25;100.00;52668.28;2080284;28;21084;-75
2023/12/10 00:05:06;;;;;;;43.97;4.38;;;;;;;-146.25;100.00;52643.97;2079293;28;23061;-74
2023/12/10 00:06:08;;;;;;;44.88;5.40;;;;;;;-146.25;100.00;52658.16;2079487;28;23360;-75
2023/12/10 00:07:15;;;;;;;35.97;3.92;;;;;;;-146.25;100.00;52650.03;2080335;28;20038;-76
2023/12/10 00:08:16;;;;;;;49.65;3.97;;;;;;;-146.25;100.00;52684.50;2080712;28;20109;-75
2023/12/10 00:09:19;;;;;;;45.03;4.68;;;;;;;-146.25;100.00;52678.44;2079784;28;24704;-72
2023/12/10 00:10:24;;;;;;;39.55;3.80;;;;;;;-146.25;100.00;52672.34;2080260;28;23332;-75
2023/12/10 00:11:28;;;;;;;54.53;4.47;;;;;;;-146.25;100.00;52656.13;2079857;28;20575;-77
2023/12/10 00:12:30;;;;;;;43.70;3.78;;;;;;;-146.25;100.00;52676.41;2080117;28;22293;-75
2023/12/10 00:13:34;;;;;;;37.15;3.85;;;;;;;-146.25;100.00;52664.22;2079959;28;21786;-75
2023/12/10 00:14:36;;;;;;;38.63;4.68;;;;;;;-146.25;100.00;52696.69;2080101;28;20163;-75
2023/12/10 00:15:38;;;;;;;42.58;4.40;;;;;;;-146.25;100.00;52672.34;2079488;28;25206;-76
2023/12/10 00:16:42;;;;;;;56.20;4.35;;;;;;;-146.25;100.00;52690.59;2080542;28;20275;-73
2023/12/10 00:17:44;;;;;;;42.00;4.22;;;;;;;-146.25;100.00;52706.81;2079693;28;20924;-75
2023/12/10 00:18:46;;;;;;;39.03;3.95;;;;;;;-146.25;100.00;52704.78;2080178;28;24640;-75
2023/12/10 00:19:48;;;;;;;41.60;3.75;;;;;;;-146.25;100.00;52692.63;2079976;28;20030;-75
2023/12/10 00:20:50;;;;;;;41.28;4.18;;;;;;;-146.25;100.00;52658.16;2079380;28;26484;-76
2023/12/10 00:21:54;;;;;;;46.05;4.13;;;;;;;-146.25;100.00;52688.56;2079252;28;21899;-75
2023/12/10 00:22:56;;;;;;;41.05;4.50;;;;;;;-146.25;100.00;52668.28;2080268;28;21007;-76
2023/12/10 00:23:58;;;;;;;45.17;4.18;;;;;;;-146.25;100.00;52676.41;2079720;28;21176;-75
2023/12/10 00:25:02;;;;;;;44.65;4.05;;;;;;;-146.25;100.00;52629.75;2080249;28;25365;-74
2023/12/10 00:26:04;;;;;;;51.80;4.45;;;;;;;-146.25;100.00;52672.34;2079148;28;24087;-76
2023/12/10 00:27:06;;;;;;;51.70;4.18;;;;;;;-146.25;100.00;52678.44;2080159;28;23261;-75
2023/12/10 00:28:08;;;;;;;55.20;4.28;;;;;;;-146.25;100.00;52680.47;2079661;28;25542;-76
2023/12/10 00:29:10;;;;;;;43.97;3.95;;;;;;;-146.25;100.00;52637.88;2079937;28;23264;-75
2023/12/10 00:30:13;;;;;;;42.55;3.92;;;;;;;-146.25;100.00;52684.50;2078774;28;26009;-77
2023/12/10 00:31:14;;;;;;;37.40;3.83;;;;;;;-146.25;100.00;52670.31;2079923;28;24552;-75
2023/12/10 00:32:19;;;;;;;46.90;4.28;;;;;;;-146.25;100.00;52708.84;2080068;28;24443;-75
2023/12/10 00:33:20;;;;;;;48.58;4.38;;;;;;;-146.25;100.00;52627.75;2080224;28;21480;-75
2023/12/10 00:34:22;;;;;;;48.78;4.53;;;;;;;-146.25;100.00;52668.28;2079676;28;21525;-75
2023/12/10 00:35:24;;;;;;;46.20;3.90;;;;;;;-146.25;100.00;52660.19;2079885;28;22461;-75
2023/12/10 00:36:26;;;;;;;41.75;4.03;;;;;;;-146.25;100.00;52692.63;2079745;28;22278;-75
2023/12/10 00:37:31;;;;;;;41.58;4.38;;;;;;;-146.25;100.00;52698.72;2080334;28;22199;-75
2023/12/10 00:38:32;;;;;;;39.10;4.47;;;;;;;-146.25;100.00;52658.16;2079614;28;26225;-75
2023/12/10 00:39:35;;;;;;;51.00;4.05;;;;;;;-146.25;100.00;52694.66;2079239;28;23871;-75
2023/12/10 00:40:37;;;;;;;37.42;3.40;;;;;;;-146.25;100.00;52672.34;2079655;28;20734;-75
2023/12/10 00:41:39;;;;;;;43.65;3.88;;;;;;;-146.25;100.00;52723.03;2079530;28;25511;-75
2023/12/10 00:42:43;;;;;;;49.63;3.60;;;;;;;-146.25;100.00;52674.38;2079782;28;22557;-75
2023/12/10 00:43:44;;;;;;;58.20;4.38;;;;;;;-146.25;100.00;52696.69;2079704;28;20479;-74
2023/12/10 00:44:46;;;;;;;40.17;3.88;;;;;;;-146.25;100.00;52670.31;2079526;28;21131;-75
2023/12/10 00:45:52;;;;;;;47.10;3.83;;;;;;;-146.25;100.00;52688.56;2079955;28;20042;-75
2023/12/10 00:46:54;;;;;;;38.28;4.55;;;;;;;-146.25;100.00;52688.56;2079671;28;23196;-77
2023/12/10 00:47:56;;;;;;;47.33;4.13;;;;;;;-146.25;100.00;52714.94;2080215;28;22762;-78
2023/12/10 00:48:58;;;;;;;40.13;4.20;;;;;;;-146.25;100.00;52688.56;2079746;28;23844;-75
2023/12/10 00:50:00;;;;;;;39.53;3.65;;;;;;;-146.25;100.00;52672.34;2080383;28;20909;-74
2023/12/10 00:51:04;;;;;;;51.30;4.18;;;;;;;-146.25;100.00;52700.72;2079800;28;23495;-74
2023/12/10 00:52:06;;;;;;;36.35;3.10;;;;;;;-146.25;100.00;52686.53;2079643;28;20108;-75
2023/12/10 00:53:08;;;;;;;35.78;3.83;;;;;;;-146.25;100.00;52690.59;2078641;28;20046;-75
2023/12/10 00:54:11;;;;;;;47.28;3.85;;;;;;;-146.25;100.00;52725.06;2080349;28;20844;-75
2023/12/10 00:55:14;;;;;;;42.35;4.40;;;;;;;-146.25;100.00;52684.50;2079624;28;23067;-76
2023/12/10 00:56:19;;;;;;;39.83;3.75;;;;;;;-146.25;100.00;52656.13;2080361;28;20815;-75
2023/12/10 00:57:21;;;;;;;47.60;4.00;;;;;;;-146.25;100.00;52674.38;2079660;28;23729;-75
2023/12/10 00:58:23;;;;;;;36.88;3.72;;;;;;;-146.25;100.00;52684.50;2080241;28;22314;-76
2023/12/10 00:59:25;;;;;;;33.67;4.00;;;;;;;-146.25;100.00;52688.56;2079352;28;23238;-77
2023/12/10 01:00:27;;;;;;;34.42;4.20;;;;;;;-146.25;100.00;52672.34;2079957;28;22336;-76
2023/12/10 01:01:28;;;;;;;40.50;3.35;;;;;;;-146.25;100.00;52692.63;2079513;28;20060;-76
2023/12/10 01:02:31;;;;;;;47.20;3.72;;;;;;;-146.25;100.00;52648.00;2080423;28;20147;-76
2023/12/10 01:03:33;;;;;;;42.17;4.20;;;;;;;-146.25;100.00;52660.19;2079394;28;27257;-76
2023/12/10 01:04:35;;;;;;;44.83;4.95;;;;;;;-146.25;100.00;52660.19;2080200;28;20930;-75
2023/12/10 01:05:37;;;;;;;43.28;3.80;;;;;;;-146.25;100.00;52674.38;2079677;28;22229;-76
2023/12/10 01:06:39;;;;;;;48.65;4.28;;;;;;;-146.25;100.00;52643.97;2079916;28;22224;-76
2023/12/10 01:07:40;;;;;;;46.63;4.40;;;;;;;-146.25;100.00;52723.03;2079776;28;20872;-75
2023/12/10 01:08:43;;;;;;;47.85;3.67;;;;;;;-146.25;100.00;52662.22;2079809;28;26064;-75
2023/12/10 01:09:45;;;;;;;37.38;3.83;;;;;;;-146.25;100.00;52672.34;2079641;28;22404;-76
2023/12/10 01:10:48;;;;;;;39.28;3.85;;;;;;;-146.25;100.00;52639.91;2079487;28;23555;-77
2023/12/10 01:11:49;;;;;;;36.75;3.72;;;;;;;-146.25;100.00;52678.44;2079113;28;24995;-76
2023/12/10 01:12:52;;;;;;;42.67;3.65;;;;;;;-146.25;100.00;52650.03;2079856;28;23425;-77
2023/12/10 01:13:54;;;;;;;37.92;3.63;;;;;;;-146.25;100.00;52672.34;2079118;28;20738;-77
2023/12/10 01:14:56;;;;;;;51.95;4.10;;;;;;;-146.25;100.00;52682.47;2080149;28;20042;-78
2023/12/10 01:15:58;;;;;;;35.90;3.03;;;;;;;-146.25;100.00;52660.19;2080032;28;20046;-77
2023/12/10 01:17:00;;;;;;;41.08;4.40;;;;;;;-146.25;100.00;52650.03;2079487;28;21151;-74
2023/12/10 01:18:02;;;;;;;38.72;4.25;;;;;;;-146.25;100.00;52666.25;2079739;28;20252;-75
2023/12/10 01:19:04;;;;;;;38.78;4.50;;;;;;;-146.25;100.00;52666.25;2079876;28;20164;-77
2023/12/10 01:20:06;;;;;;;44.80;3.80;;;;;;;-146.25;100.00;52662.22;2079558;28;23494;-75
2023/12/10 01:21:09;;;;;;;38.53;3.63;;;;;;;-146.25;100.00;52694.66;2079599;28;23193;-76
2023/12/10 01:22:11;;;;;;;40.28;3.80;;;;;;;-146.25;100.00;52668.28;2079528;28;20966;-74
2023/12/10 01:23:14;;;;;;;46.22;3.70;;;;;;;-146.25;100.00;52682.47;2079861;28;22814;-77
2023/12/10 01:24:19;;;;;;;36.28;3.42;;;;;;;-146.25;100.00;52692.63;2079439;28;22964;-75
2023/12/10 01:25:20;;;;;;;45.40;3.72;;;;;;;-146.25;100.00;52648.00;2079997;28;22790;-75
2023/12/10 01:26:22;;;;;;;42.00;4.40;;;;;;;-146.25;100.00;52672.34;2079528;28;24610;-75
2023/12/10 01:27:27;;;;;;;43.53;3.58;;;;;;;-146.25;100.00;52712.91;2079910;28;20779;-75
2023/12/10 01:28:31;;;;;;;39.80;4.22;;;;;;;-146.25;100.00;52688.56;2079515;28;22613;-77
2023/12/10 01:29:33;;;;;;;35.28;2.80;;;;;;;-146.25;100.00;52648.00;2079093;28;23437;-76
2023/12/10 01:30:35;;;;;;;42.38;4.07;;;;;;;-146.25;100.00;52692.63;2079697;28;20905;-75
2023/12/10 01:31:39;;;;;;;39.42;3.72;;;;;;;-146.25;100.00;52662.22;2079796;28;25789;-76
2023/12/10 01:32:41;;;;;;;29.90;3.45;;;;;;;-146.25;100.00;52688.56;2079517;28;22072;-75
2023/12/10 01:33:44;;;;;;;37.10;3.58;;;;;;;-146.25;100.00;52666.25;2079993;28;20564;-76
2023/12/10 01:34:46;;;;;;;38.92;3.30;;;;;;;-146.25;100.00;52670.31;2079409;28;24202;-72
2023/12/10 01:35:48;;;;;;;39.60;3.47;;;;;;;-146.25;100.00;52672.34;2079921;28;20052;-76
2023/12/10 01:36:51;;;;;;;35.05;3.10;;;;;;;-146.25;100.00;52680.47;2079849;28;20042;-76
2023/12/10 01:37:56;;;;;;;31.02;3.25;;;;;;;-146.25;100.00;52680.47;2079189;28;25568;-76
2023/12/10 01:38:58;;;;;;;44.78;3.90;;;;;;;-146.25;100.00;52680.47;2079147;28;24969;-76
2023/12/10 01:39:59;;;;;;;37.10;3.60;;;;;;;-146.25;100.00;52702.75;2071004;28;22187;-77
2023/12/10 01:41:01;;;;;;;38.17;3.47;;;;;;;-146.25;100.00;52672.34;2070643;28;24551;-76
2023/12/10 01:42:03;;;;;;;42.28;3.20;;;;;;;-146.25;100.00;52668.28;2081017;28;22076;-76
2023/12/10 01:43:06;;;;;;;34.85;3.92;;;;;;;-146.25;100.00;52656.13;2080730;28;20057;-76
2023/12/10 01:44:09;;;;;;;34.40;3.75;;;;;;;-146.25;100.00;52690.59;2071672;28;26408;-76
2023/12/10 01:45:12;;;;;;;34.33;3.25;;;;;;;-146.25;100.00;52662.22;2072244;28;23689;-76
2023/12/10 01:46:14;;;;;;;32.72;3.00;;;;;;;-146.25;100.00;52666.25;2081223;28;20030;-77
2023/12/10 01:47:18;;;;;;;37.55;3.30;;;;;;;-146.25;100.00;52656.13;2080818;28;24127;-76
2023/12/10 01:48:21;;;;;;;36.58;3.58;;;;;;;-146.25;100.00;52662.22;2081024;28;20649;-76
2023/12/10 01:49:25;;;;;;;33.45;3.75;;;;;;;-146.25;100.00;52696.69;2080602;28;20042;-76
2023/12/10 01:50:27;;;;;;;33.65;3.90;;;;;;;-146.25;100.00;52688.56;2081064;28;23697;-77
2023/12/10 01:51:29;;;;;;;41.78;4.15;;;;;;;-146.25;100.00;52696.69;2080841;28;24157;-76
2023/12/10 01:52:33;;;;;;;34.90;3.67;;;;;;;-146.25;100.00;52690.59;2080551;28;21180;-76
2023/12/10 01:53:36;;;;;;;40.08;3.38;;;;;;;-146.25;100.00;52658.16;2079580;28;23751;-76
2023/12/10 01:54:38;;;;;;;37.13;3.55;;;;;;;-146.25;100.00;52660.19;2081168;28;20959;-76
2023/12/10 01:55:41;;;;;;;42.05;4.22;;;;;;;-146.25;100.00;52645.97;2080627;28;23404;-75
2023/12/10 01:56:46;;;;;;;35.83;3.97;;;;;;;-146.25;100.00;52670.31;2080311;28;25245;-76
2023/12/10 01:57:56;;;;;;;41.55;4.07;;;;;;;-146.25;100.00;52662.22;2080965;28;20042;-76
2023/12/10 01:58:58;;;;;;;30.92;2.97;;;;;;;-146.25;100.00;52680.47;2080893;28;23742;-76
2023/12/10 02:00:00;;;;;;;38.08;3.03;;;;;;;-146.25;100.00;52680.47;2080280;28;25218;-74
2023/12/10 02:01:17;;;;;;;42.28;3.80;;;;;;;-146.25;100.00;52688.56;2081290;28;20038;-77
2023/12/10 02:02:21;;;;;;;32.60;3.63;;;;;;;-146.25;100.00;52676.41;2080699;28;20054;-77
2023/12/10 02:03:23;;;;;;;37.42;3.22;;;;;;;-146.25;100.00;52672.34;2080238;28;24722;-76
2023/12/10 02:04:25;;;;;;;39.35;3.80;;;;;;;-146.25;100.00;52643.97;2079969;28;21804;-77
2023/12/10 02:05:26;;;;;;;41.42;3.65;;;;;;;-146.25;100.00;52672.34;2081284;28;20037;-77
2023/12/10 02:06:28;;;;;;;34.33;3.22;;;;;;;-146.25;100.00;52694.66;2080718;28;21210;-77
2023/12/10 02:07:30;;;;;;;33.53;3.63;;;;;;;-146.25;100.00;52678.44;2080943;28;20042;-77
2023/12/10 02:08:35;;;;;;;30.13;3.60;;;;;;;-146.25;100.00;52672.34;2080717;28;25443;-77
2023/12/10 02:09:36;;;;;;;32.88;3.58;;;;;;;-146.25;100.00;52652.06;2081103;28;21493;-78
2023/12/10 02:10:40;;;;;;;37.70;3.63;;;;;;;-146.25;100.00;52676.41;2080686;28;23462;-77
2023/12/10 02:11:42;;;;;;;34.72;3.58;;;;;;;-146.25;100.00;52696.69;2081409;28;20247;-76
2023/12/10 02:12:48;;;;;;;31.77;3.45;;;;;;;-146.25;100.00;52700.72;2080473;28;23381;-77
2023/12/10 02:13:50;;;;;;;35.70;3.35;;;;;;;-146.25;100.00;52688.56;2080818;28;23995;-76
2023/12/10 02:14:54;;;;;;;35.55;3.72;;;;;;;-146.25;100.00;52704.78;2080455;28;20164;-77
2023/12/10 02:15:58;;;;;;;37.58;3.60;;;;;;;-146.25;100.00;52654.09;2080891;28;20046;-77
2023/12/10 02:17:00;;;;;;;42.53;3.83;;;;;;;-146.25;100.00;52650.03;2080640;28;20053;-76
2023/12/10 02:18:02;;;;;;;32.97;3.78;;;;;;;-146.25;100.00;52678.44;2081019;28;20313;-77
2023/12/10 02:19:04;;;;;;;32.80;3.42;;;;;;;-146.25;100.00;52662.22;2080748;28;20902;-77
2023/12/10 02:20:07;;;;;;;29.73;3.10;;;;;;;-146.25;100.00;52670.31;2081007;28;20093;-77
2023/12/10 02:21:11;;;;;;;44.88;4.72;;;;;;;-146.25;100.00;52668.28;2080556;28;25069;-77
2023/12/10 02:22:17;;;;;;;34.03;3.65;;;;;;;-146.25;100.00;52623.69;2080616;28;21144;-77
2023/12/10 02:23:56;;;;;;;36.42;3.38;;;;;;;-146.25;100.00;52668.28;2080151;28;21807;-77
2023/12/10 02:25:05;;;;;;;29.55;3.42;;;;;;;-146.25;100.00;52660.19;2080131;28;26462;-77
2023/12/10 02:26:07;;;;;;;40.00;3.65;;;;;;;-146.25;100.00;52652.06;2080445;28;22265;-77
2023/12/10 02:27:09;;;;;;;31.20;3.95;;;;;;;-146.25;100.00;52641.94;2079780;28;23478;-77
2023/12/10 02:28:11;;;;;;;34.00;3.65;;;;;;;-146.25;100.00;52668.28;2080940;28;24399;-77
2023/12/10 02:29:13;;;;;;;34.10;4.07;;;;;;;-146.25;100.00;52664.22;2079976;28;22305;-77
2023/12/10 02:30:18;;;;;;;33.47;3.33;;;;;;;-146.25;100.00;52641.94;2081048;28;22846;-78
2023/12/10 02:31:20;;;;;;;39.95;4.63;;;;;;;-146.25;100.00;52696.69;2081019;28;20042;-78
2023/12/10 02:32:22;;;;;;;42.83;3.78;;;;;;;-146.25;100.00;52656.13;2080949;28;25125;-77
2023/12/10 02:33:23;;;;;;;41.05;3.60;;;;;;;-146.25;100.00;52672.34;2080200;28;22950;-77
2023/12/10 02:34:25;;;;;;;37.92;3.58;;;;;;;-146.25;100.00;52660.19;2080720;28;22434;-78
2023/12/10 02:35:27;;;;;;;34.60;4.18;;;;;;;-146.25;100.00;52668.28;2080553;28;24469;-77
2023/12/10 02:36:29;;;;;;;35.30;2.95;;;;;;;-146.25;100.00;52672.34;2080953;28;21775;-78
2023/12/10 02:37:31;;;;;;;42.95;4.28;;;;;;;-146.25;100.00;52670.31;2080576;28;22204;-76
2023/12/10 02:38:33;;;;;;;34.90;3.63;;;;;;;-146.25;100.00;52672.34;2080842;28;23309;-78
2023/12/10 02:39:37;;;;;;;31.58;3.63;;;;;;;-146.25;100.00;52674.38;2079492;28;21360;-78
2023/12/10 02:40:39;;;;;;;36.03;3.25;;;;;;;-146.25;100.00;52686.53;2079919;28;26545;-78
2023/12/10 02:41:41;;;;;;;40.08;3.85;;;;;;;-146.25;100.00;52664.22;2080926;28;20120;-76
2023/12/10 02:42:47;;;;;;;24.88;2.78;;;;;;;-146.25;100.00;52680.47;2081117;28;20208;-77
2023/12/10 02:43:49;;;;;;;37.85;3.90;;;;;;;-146.25;100.00;52654.09;2080117;28;24924;-78
2023/12/10 02:44:55;;;;;;;31.52;3.60;;;;;;;-146.25;100.00;52635.84;2080593;28;20050;-78
2023/12/10 02:45:57;;;;;;;44.10;4.10;;;;;;;-146.25;100.00;52670.31;2080412;28;22981;-77
2023/12/10 02:46:59;;;;;;;37.60;3.67;;;;;;;-146.25;100.00;52645.97;2081023;28;21675;-78
2023/12/10 02:48:01;;;;;;;36.53;3.45;;;;;;;-146.25;100.00;52662.22;2080554;28;22745;-78
2023/12/10 02:49:05;;;;;;;36.95;3.88;;;;;;;-146.25;100.00;52652.06;2080762;28;23409;-78
2023/12/10 02:50:08;;;;;;;40.72;3.42;;;;;;;-146.25;100.00;52706.81;2080434;28;20485;-78
2023/12/10 02:51:09;;;;;;;26.35;2.78;;;;;;;-146.25;100.00;52656.13;2080702;28;22421;-79
2023/12/10 02:52:14;;;;;;;26.67;3.20;;;;;;;-146.25;100.00;52660.19;2080668;28;23219;-77
2023/12/10 02:53:18;;;;;;;32.95;3.42;;;;;;;-146.25;100.00;52656.13;2079668;28;21826;-78
2023/12/10 02:54:20;;;;;;;33.15;3.25;;;;;;;-146.25;100.00;52714.94;2080430;28;24603;-77
2023/12/10 02:55:22;;;;;;;31.73;3.17;;;;;;;-146.25;100.00;52668.28;2080633;28;23129;-77
2023/12/10 02:56:23;;;;;;;29.88;3.72;;;;;;;-146.25;100.00;52670.31;2080575;28;20112;-77
2023/12/10 02:57:25;;;;;;;31.27;3.10;;;;;;;-146.25;100.00;52656.13;2080772;28;23978;-78
2023/12/10 02:58:27;;;;;;;23.77;3.00;;;;;;;-146.25;100.00;52680.47;2080465;28;24337;-78
2023/12/10 02:59:29;;;;;;;25.40;2.80;;;;;;;-146.25;100.00;52656.13;2080321;28;20900;-78
2023/12/10 03:00:33;;;;;;;38.50;3.83;;;;;;;-146.25;100.00;52676.41;2082587;28;21070;-77
2023/12/10 03:01:35;;;;;;;23.70;3.00;;;;;;;-146.25;100.00;52654.09;2088675;28;24682;-77
2023/12/10 03:02:37;;;;;;;26.25;3.10;;;;;;;-146.25;100.00;52660.19;2088315;28;25873;-77
2023/12/10 03:03:38;;;;;;;29.83;3.33;;;;;;;-146.25;100.00;52635.84;2089117;28;20030;-77
2023/12/10 03:04:40;;;;;;;29.42;3.72;;;;;;;-146.25;100.00;52694.66;2088621;28;25996;-76
2023/12/10 03:05:42;;;;;;;29.30;3.15;;;;;;;-146.25;100.00;52678.44;2088912;28;20094;-77
2023/12/10 03:06:44;;;;;;;23.20;2.45;;;;;;;-146.25;100.00;52672.34;2088471;28;22221;-78
2023/12/10 03:07:46;;;;;;;27.52;2.67;;;;;;;-146.25;100.00;52645.97;2088808;28;24627;-77
2023/12/10 03:08:48;;;;;;;24.88;2.92;;;;;;;-146.25;100.00;52678.44;2089234;28;20180;-78
2023/12/10 03:09:49;;;;;;;27.05;3.00;;;;;;;-146.25;100.00;52670.31;2088659;28;23660;-77
2023/12/10 03:10:51;;;;;;;23.02;2.95;;;;;;;-146.25;100.00;52680.47;2088772;28;20115;-76
2023/12/10 03:11:53;;;;;;;28.13;3.13;;;;;;;-146.25;100.00;52631.78;2088704;28;21942;-77
2023/12/10 03:12:55;;;;;;;22.13;2.92;;;;;;;-146.25;100.00;52658.16;2088779;28;20127;-75
2023/12/10 03:13:57;;;;;;;27.98;3.15;;;;;;;-146.25;100.00;52680.47;2089027;28;20949;-77
2023/12/10 03:14:59;;;;;;;24.95;3.25;;;;;;;-146.25;100.00;52686.53;2088309;28;21255;-77
2023/12/10 03:16:01;;;;;;;26.48;3.10;;;;;;;-146.25;100.00;52672.34;2088462;28;24850;-76
2023/12/10 03:17:03;;;;;;;22.67;2.97;;;;;;;-146.25;100.00;52658.16;2088513;28;23886;-77
2023/12/10 03:18:05;;;;;;;25.00;2.88;;;;;;;-146.25;100.00;52670.31;2088774;28;20157;-77
2023/12/10 03:19:09;;;;;;;22.38;2.83;;;;;;;-146.25;100.00;52648.00;2088354;28;22688;-77
2023/12/10 03:20:12;;;;;;;25.20;3.10;;;;;;;-146.25;100.00;52635.84;2088605;28;24010;-77
2023/12/10 03:21:15;;;;;;;22.33;2.75;;;;;;;-146.25;100.00;52660.19;2088536;28;20953;-77
2023/12/10 03:22:18;;;;;;;21.15;2.55;;;;;;;-146.25;100.00;52654.09;2088937;28;20108;-77
2023/12/10 03:23:19;;;;;;;23.63;2.78;;;;;;;-146.25;100.00;52658.16;2088783;28;20255;-77
2023/12/10 03:24:21;;;;;;;29.83;3.03;;;;;;;-146.25;100.00;52672.34;2088973;28;20041;-77
2023/12/10 03:25:23;;;;;;;26.08;2.80;;;;;;;-146.25;100.00;52635.84;2088406;28;22850;-77
2023/12/10 03:26:26;;;;;;;25.77;2.65;;;;;;;-146.25;100.00;52654.09;2088709;28;23852;-78
2023/12/10 03:27:30;;;;;;;20.83;2.80;;;;;;;-146.25;100.00;52676.41;2088470;28;20030;-78
2023/12/10 03:28:35;;;;;;;29.38;2.92;;;;;;;-146.25;100.00;52682.47;2088545;28;24365;-78
2023/12/10 03:29:36;;;;;;;22.73;2.55;;;;;;;-146.25;100.00;52674.38;2079995;28;22735;-78
2023/12/10 03:30:38;;;;;;;29.88;2.92;;;;;;;-146.25;100.00;52684.50;2081034;28;24698;-78
2023/12/10 03:31:40;;;;;;;25.00;2.40;;;;;;;-146.25;100.00;52674.38;2080461;28;21069;-76
2023/12/10 03:32:42;;;;;;;24.27;2.72;;;;;;;-146.25;100.00;52672.34;2080470;28;24428;-77
2023/12/10 03:33:44;;;;;;;21.23;2.22;;;;;;;-146.25;100.00;52668.28;2079845;28;24884;-77
2023/12/10 03:34:45;;;;;;;22.58;2.30;;;;;;;-146.25;100.00;52643.97;2080484;28;22017;-74
2023/12/10 03:35:47;;;;;;;20.60;2.88;;;;;;;-146.25;100.00;52674.38;2079940;28;22779;-76
2023/12/10 03:36:52;;;;;;;22.80;2.42;;;;;;;-146.25;100.00;52692.63;2080256;28;20046;-77
2023/12/10 03:37:55;;;;;;;25.23;2.10;;;;;;;-146.25;100.00;52672.34;2080212;28;20097;-76
2023/12/10 03:38:59;;;;;;;21.73;2.67;;;;;;;-146.25;100.00;52643.97;2080316;28;23166;-78
2023/12/10 03:40:00;;;;;;;17.65;2.00;;;;;;;-146.25;100.00;52664.22;2080053;28;27244;-74
2023/12/10 03:41:02;;;;;;;22.15;2.95;;;;;;;-146.25;100.00;52694.66;2080608;28;20119;-77
2023/12/10 03:42:04;;;;;;;23.92;2.30;;;;;;;-146.25;100.00;52668.28;2080187;28;21898;-76
2023/12/10 03:43:06;;;;;;;23.92;2.25;;;;;;;-146.25;100.00;52700.72;2080542;28;22995;-76
2023/12/10 03:44:10;;;;;;;22.42;2.33;;;;;;;-146.25;100.00;52645.97;2080262;28;22393;-78
2023/12/10 03:45:12;;;;;;;22.90;2.40;;;;;;;-146.25;100.00;52650.03;2080143;28;22684;-77
2023/12/10 03:46:14;;;;;;;21.63;2.83;;;;;;;-146.25;100.00;52674.38;2080125;28;23530;-77
2023/12/10 03:47:16;;;;;;;21.85;2.20;;;;;;;-146.25;100.00;52741.28;2080321;28;26412;-77
2023/12/10 03:48:17;;;;;;;16.08;2.22;;;;;;;-146.25;100.00;52684.50;2080453;28;20045;-76
2023/12/10 03:49:19;;;;;;;21.88;2.45;;;;;;;-146.25;100.00;52674.38;2080196;28;25211;-77
2023/12/10 03:50:21;;;;;;;19.13;2.45;;;;;;;-146.25;100.00;52645.97;2080477;28;20843;-76
2023/12/10 03:51:23;;;;;;;22.10;2.10;;;;;;;-146.25;100.00;52629.75;2080310;28;22795;-76
2023/12/10 03:52:25;;;;;;;19.67;2.03;;;;;;;-146.25;100.00;52712.91;2079802;28;24499;-75
2023/12/10 03:53:27;;;;;;;20.13;2.33;;;;;;;-146.25;100.00;52627.75;2080370;28;21291;-76
2023/12/10 03:54:29;;;;;;;19.95;2.28;;;;;;;-146.25;100.00;52660.19;2079909;28;24332;-77
2023/12/10 03:55:31;;;;;;;19.92;2.40;;;;;;;-146.25;100.00;52704.78;2079909;28;26934;-77
2023/12/10 03:56:35;;;;;;;20.33;2.33;;;;;;;-146.25;100.00;52668.28;2080382;28;20176;-77
2023/12/10 03:57:38;;;;;;;18.27;2.00;;;;;;;-146.25;100.00;52674.38;2080622;28;20042;-77
2023/12/10 03:58:39;;;;;;;18.45;2.63;;;;;;;-146.25;100.00;52670.31;2080012;28;22835;-77
2023/12/10 03:59:41;;;;;;;23.52;2.13;;;;;;;-146.25;100.00;52672.34;2079897;28;22284;-77
2023/12/10 04:00:46;;;;;;;19.17;2.10;;;;;;;-146.25;100.00;52696.69;2080227;28;20038;-75
2023/12/10 04:01:50;;;;;;;20.02;2.65;;;;;;;-146.25;100.00;52692.63;2080297;28;21320;-77
2023/12/10 04:02:52;;;;;;;17.00;2.45;;;;;;;-146.25;100.00;52676.41;2079458;28;20898;-77
2023/12/10 04:03:54;;;;;;;19.60;2.50;;;;;;;-146.25;100.00;52684.50;2079410;28;24352;-77
2023/12/10 04:04:56;;;;;;;20.05;2.45;;;;;;;-146.25;100.00;52660.19;2079843;28;22168;-75
2023/12/10 04:05:57;;;;;;;19.83;2.63;;;;;;;-146.25;100.00;52684.50;2080316;28;22581;-77
2023/12/10 04:06:59;;;;;;;20.88;2.20;;;;;;;-146.25;100.00;52668.28;2080016;28;23162;-77
2023/12/10 04:08:03;;;;;;;19.48;2.33;;;;;;;-146.25;100.00;52676.41;2080446;28;20045;-76
2023/12/10 04:09:09;;;;;;;22.63;2.70;;;;;;;-146.25;100.00;52680.47;2079559;28;24198;-76
2023/12/10 04:10:11;;;;;;;20.70;2.30;;;;;;;-146.25;100.00;52672.34;2080715;28;21240;-77
2023/12/10 04:11:22;;;;;;;19.70;2.28;;;;;;;-146.25;100.00;52668.28;2080183;28;20046;-76
2023/12/10 04:12:26;;;;;;;21.05;2.05;;;;;;;-146.25;100.00;52674.38;2080888;28;20041;-76
2023/12/10 04:13:29;;;;;;;21.08;2.30;;;;;;;-146.25;100.00;52658.16;2079830;28;21991;-77
2023/12/10 04:14:31;;;;;;;17.45;2.28;;;;;;;-146.25;100.00;52633.81;2079623;28;20081;-77
2023/12/10 04:15:33;;;;;;;23.40;2.85;;;;;;;-146.25;100.00;52692.63;2079585;28;21117;-76
2023/12/10 04:16:39;;;;;;;15.82;2.17;;;;;;;-146.25;100.00;52708.84;2080121;28;21675;-76
2023/12/10 04:17:42;;;;;;;20.70;2.20;;;;;;;-146.25;100.00;52658.16;2079943;28;22233;-76
2023/12/10 04:18:44;;;;;;;18.02;2.22;;;;;;;-146.25;100.00;52668.28;2079906;28;22169;-76
2023/12/10 04:19:46;;;;;;;18.48;1.77;;;;;;;-146.25;100.00;52668.28;2080045;28;20054;-76
2023/12/10 04:20:48;;;;;;;25.55;2.83;;;;;;;-146.25;100.00;52676.41;2080291;28;20038;-76
2023/12/10 04:21:49;;;;;;;18.55;2.45;;;;;;;-146.25;100.00;52648.00;2079870;28;20645;-76
2023/12/10 04:22:51;;;;;;;21.08;2.53;;;;;;;-146.25;100.00;52656.13;2080281;28;25535;-78
2023/12/10 04:23:57;;;;;;;21.25;2.35;;;;;;;-146.25;100.00;52660.19;2079756;28;22295;-77
2023/12/10 04:25:00;;;;;;;22.58;2.60;;;;;;;-146.25;100.00;52694.66;2079817;28;26127;-77
2023/12/10 04:26:03;;;;;;;18.25;2.85;;;;;;;-146.25;100.00;52652.06;2080161;28;20050;-76
2023/12/10 04:27:05;;;;;;;18.77;2.50;;;;;;;-146.25;100.00;52656.13;2080020;28;21443;-78
2023/12/10 04:28:09;;;;;;;17.20;2.35;;;;;;;-146.25;100.00;52645.97;2079210;28;26009;-79
2023/12/10 04:29:13;;;;;;;15.85;1.92;;;;;;;-146.25;100.00;52637.88;2079582;28;20137;-73
2023/12/10 04:30:19;;;;;;;15.45;2.10;;;;;;;-146.25;100.00;52631.78;2079624;28;22502;-77
2023/12/10 04:31:21;;;;;;;21.77;2.75;;;;;;;-146.25;100.00;52639.91;2080073;28;20957;-76
2023/12/10 04:32:23;;;;;;;19.67;2.53;;;;;;;-146.25;100.00;52684.50;2079975;28;21514;-78
2023/12/10 04:33:27;;;;;;;15.18;2.17;;;;;;;-146.25;100.00;52676.41;2080016;28;22883;-77
2023/12/10 04:34:29;;;;;;;16.45;2.20;;;;;;;-146.25;100.00;52682.47;2079809;28;22693;-78
2023/12/10 04:35:31;;;;;;;18.75;2.03;;;;;;;-146.25;100.00;52668.28;2079707;28;27691;-78
2023/12/10 04:36:32;;;;;;;16.85;2.60;;;;;;;-146.25;100.00;52684.50;2080099;28;21192;-78
2023/12/10 04:37:34;;;;;;;21.02;2.42;;;;;;;-146.25;100.00;52700.72;2080200;28;22677;-76
2023/12/10 04:38:36;;;;;;;17.48;2.13;;;;;;;-146.25;100.00;52688.56;2079310;28;23755;-78
2023/12/10 04:39:41;;;;;;;15.95;2.33;;;;;;;-146.25;100.00;52643.97;2079833;28;21475;-78
2023/12/10 04:40:43;;;;;;;18.20;2.58;;;;;;;-146.25;100.00;52680.47;2079685;28;22883;-76
2023/12/10 04:41:44;;;;;;;21.98;2.20;;;;;;;-146.25;100.00;52692.63;2079697;28;23774;-77
2023/12/10 04:42:46;;;;;;;22.13;2.28;;;;;;;-146.25;100.00;52660.19;2079944;28;22063;-78